METAR Data
IDs: Format: Raw Decoded Include TAF

Data at: 1848 UTC 16 Oct 2021

LEDA 161830Z AUTO 12003KT CAVOK 16/09 Q1018